createdAt,value
2022-10-22T00:02:21.832Z,98079.13
2022-10-22T00:04:49.841Z,98071.69
2022-10-22T00:07:18.074Z,98067.50
2022-10-22T00:09:44.707Z,98075.25
2022-10-22T00:12:11.441Z,98072.13
2022-10-22T00:14:38.347Z,98061.69
2022-10-22T00:17:08.031Z,98060.34
2022-10-22T00:19:37.821Z,98054.38
2022-10-22T00:22:05.770Z,98059.31
2022-10-22T00:24:33.347Z,98062.50
2022-10-22T00:26:59.983Z,98062.00
2022-10-22T00:29:26.616Z,98066.41
2022-10-22T00:31:53.217Z,98061.56
2022-10-22T00:34:22.189Z,98059.75
2022-10-22T00:36:50.179Z,98054.56
2022-10-22T00:39:18.826Z,98070.09
2022-10-22T00:41:47.053Z,98071.72
2022-10-22T00:44:51.596Z,98060.09
2022-10-22T00:47:18.761Z,98063.06
2022-10-22T00:49:46.470Z,98063.69
2022-10-22T00:52:13.587Z,98065.56
2022-10-22T00:54:40.409Z,98061.84
2022-10-22T00:57:07.262Z,98057.81
2022-10-22T00:59:34.010Z,98058.22
2022-10-22T01:02:00.537Z,98055.75
2022-10-22T01:04:27.081Z,98052.63
2022-10-22T01:06:53.656Z,98046.19
2022-10-22T01:09:36.543Z,98052.28
2022-10-22T01:12:26.881Z,98054.31
2022-10-22T01:15:20.815Z,98041.59
2022-10-22T01:17:56.558Z,98032.66
2022-10-22T01:20:49.429Z,98022.03
2022-10-22T01:23:38.109Z,98028.75
2022-10-22T01:26:40.383Z,98011.59
2022-10-22T01:29:39.357Z,98004.94
2022-10-22T01:32:12.905Z,98017.50
2022-10-22T01:34:41.827Z,98018.66
2022-10-22T01:37:10.789Z,98020.06
2022-10-22T01:39:39.233Z,98023.59
2022-10-22T01:42:06.074Z,98026.50
2022-10-22T01:47:21.860Z,98048.00
2022-10-22T01:50:06.820Z,98043.88
2022-10-22T01:53:14.580Z,98039.31
2022-10-22T01:56:08.885Z,98044.38
2022-10-22T01:58:54.123Z,98048.47
2022-10-22T02:01:41.618Z,98041.78
2022-10-22T02:04:14.305Z,98056.72
2022-10-22T02:06:41.677Z,98048.03
2022-10-22T02:09:08.879Z,98056.97
2022-10-22T02:11:36.022Z,98050.44
2022-10-22T02:14:04.147Z,98055.19
2022-10-22T02:16:37.451Z,98059.69
2022-10-22T02:19:11.203Z,98073.91
2022-10-22T02:21:37.922Z,98077.50
2022-10-22T02:24:04.837Z,98070.03
2022-10-22T02:26:58.178Z,98077.25
2022-10-22T02:29:30.992Z,98081.09
2022-10-22T02:31:58.816Z,98077.47
2022-10-22T02:34:26.032Z,98074.78
2022-10-22T02:36:54.096Z,98065.78
2022-10-22T02:39:21.177Z,98069.06
2022-10-22T02:41:48.190Z,98075.38
2022-10-22T02:44:14.748Z,98071.44
2022-10-22T02:46:43.010Z,98063.13
2022-10-22T02:49:09.566Z,98081.25
2022-10-22T02:51:36.082Z,98090.56
2022-10-22T02:54:02.685Z,98105.41
2022-10-22T02:56:29.291Z,98089.44
2022-10-22T02:58:56.053Z,98083.25
2022-10-22T03:01:23.127Z,98083.31
2022-10-22T03:03:49.920Z,98084.78
2022-10-22T03:06:16.798Z,98068.41
2022-10-22T03:08:43.512Z,98069.19
2022-10-22T03:11:10.154Z,98071.88
2022-10-22T03:13:37.052Z,98067.63
2022-10-22T03:16:03.736Z,98061.28
2022-10-22T03:18:30.274Z,98054.53
2022-10-22T03:21:11.401Z,98056.94
2022-10-22T03:23:39.360Z,98073.94
2022-10-22T03:26:07.041Z,98069.94
2022-10-22T03:28:35.295Z,98068.34
2022-10-22T03:31:01.856Z,98056.50
2022-10-22T03:33:28.395Z,98058.97
2022-10-22T03:35:55.080Z,98053.44
2022-10-22T03:38:21.760Z,98048.63
2022-10-22T03:40:48.472Z,98043.84
2022-10-22T03:43:15.716Z,98040.69
2022-10-22T03:45:42.303Z,98036.59
2022-10-22T03:48:08.973Z,98032.56
2022-10-22T03:50:35.600Z,98034.53
2022-10-22T03:53:02.180Z,98036.69
2022-10-22T03:55:28.798Z,98040.81
2022-10-22T03:57:55.329Z,98046.44
2022-10-22T04:00:21.869Z,98042.53
2022-10-22T04:02:48.405Z,98053.22
2022-10-22T04:07:46.385Z,98055.50
2022-10-22T04:10:12.888Z,98058.47
2022-10-22T04:12:40.744Z,98065.63
2022-10-22T04:15:07.858Z,98052.91
2022-10-22T04:17:38.197Z,98054.09
2022-10-22T04:20:05.723Z,98067.81
2022-10-22T04:22:36.111Z,98082.06
2022-10-22T04:25:03.509Z,98098.53
2022-10-22T04:27:31.770Z,98078.00
2022-10-22T04:29:58.475Z,98069.56
2022-10-22T04:32:26.294Z,98061.63
2022-10-22T04:34:52.683Z,98072.31
2022-10-22T04:37:19.488Z,98072.00
2022-10-22T04:39:46.057Z,98072.25
2022-10-22T04:42:12.664Z,98077.25
2022-10-22T04:44:39.164Z,98076.88
2022-10-22T04:47:05.732Z,98080.88
2022-10-22T04:49:32.230Z,98083.31
2022-10-22T04:51:58.808Z,98080.25
2022-10-22T04:54:28.862Z,98078.34
2022-10-22T04:56:58.498Z,98079.44
2022-10-22T04:59:25.073Z,98087.38
2022-10-22T05:01:51.644Z,98086.06
2022-10-22T05:04:19.655Z,98084.25
2022-10-22T05:06:46.782Z,98090.25
2022-10-22T05:09:16.785Z,98091.63
2022-10-22T05:11:46.220Z,98093.91
2022-10-22T05:14:13.070Z,98102.31
2022-10-22T05:16:40.019Z,98101.97
2022-10-22T05:19:08.149Z,98102.84
2022-10-22T05:21:35.578Z,98113.31
2022-10-22T05:24:02.257Z,98111.44
2022-10-22T05:26:29.593Z,98120.59
2022-10-22T05:28:57.328Z,98120.06
2022-10-22T05:31:23.887Z,98129.91
2022-10-22T05:33:50.560Z,98125.78
2022-10-22T05:36:28.648Z,98136.06
2022-10-22T05:38:55.163Z,98129.28
2022-10-22T05:41:23.666Z,98136.47
2022-10-22T05:43:50.745Z,98147.03
2022-10-22T05:46:22.477Z,98161.16
2022-10-22T05:48:54.195Z,98166.16
2022-10-22T05:51:21.421Z,98171.75
2022-10-22T05:53:55.436Z,98177.94
2022-10-22T05:56:27.905Z,98184.56
2022-10-22T05:58:54.914Z,98189.34
2022-10-22T06:01:30.406Z,98194.94
2022-10-22T06:03:59.281Z,98198.63
2022-10-22T06:06:34.166Z,98197.72
2022-10-22T06:09:13.740Z,98210.16
2022-10-22T06:11:40.313Z,98206.47
2022-10-22T06:14:07.068Z,98208.81
2022-10-22T06:16:33.573Z,98214.16
2022-10-22T06:19:02.080Z,98213.94
2022-10-22T06:21:31.733Z,98222.78
2022-10-22T06:23:59.711Z,98218.69
2022-10-22T06:26:26.575Z,98229.06
2022-10-22T06:28:53.166Z,98238.13
2022-10-22T06:31:19.802Z,98237.47
2022-10-22T06:33:46.344Z,98237.44
2022-10-22T06:36:15.053Z,98246.00
2022-10-22T06:38:42.193Z,98244.25
2022-10-22T06:41:11.010Z,98251.22
2022-10-22T06:43:37.544Z,98253.09
2022-10-22T06:46:07.430Z,98257.31
2022-10-22T06:48:36.007Z,98265.72
2022-10-22T06:51:04.762Z,98256.34
2022-10-22T06:53:31.482Z,98262.34
2022-10-22T06:55:58.032Z,98276.25
2022-10-22T06:58:24.644Z,98274.25
2022-10-22T07:01:01.005Z,98281.56
2022-10-22T07:03:27.611Z,98283.97
2022-10-22T07:05:54.109Z,98289.47
2022-10-22T07:08:20.680Z,98288.47
2022-10-22T07:10:47.202Z,98295.56
2022-10-22T07:13:13.953Z,98295.16
2022-10-22T07:15:40.404Z,98298.63
2022-10-22T07:18:06.986Z,98301.34
2022-10-22T07:20:33.558Z,98313.88
2022-10-22T07:23:00.156Z,98311.22
2022-10-22T07:25:26.757Z,98319.34
2022-10-22T07:27:53.424Z,98327.63
2022-10-22T07:30:20.015Z,98331.38
2022-10-22T07:32:46.561Z,98321.22
2022-10-22T07:35:13.097Z,98318.53
2022-10-22T07:37:39.895Z,98326.56
2022-10-22T07:40:07.810Z,98325.06
2022-10-22T07:42:34.396Z,98327.63
2022-10-22T07:45:00.948Z,98332.44
2022-10-22T07:47:27.532Z,98325.13
2022-10-22T07:49:54.039Z,98329.59
2022-10-22T07:52:20.610Z,98328.84
2022-10-22T07:54:47.100Z,98326.84
2022-10-22T07:57:13.769Z,98333.66
2022-10-22T07:59:40.313Z,98336.13
2022-10-22T08:02:07.245Z,98343.66
2022-10-22T08:04:33.792Z,98338.44
2022-10-22T08:07:00.886Z,98342.97
2022-10-22T08:09:27.911Z,98344.13
2022-10-22T08:11:54.758Z,98346.25
2022-10-22T08:14:21.269Z,98345.13
2022-10-22T08:16:48.042Z,98344.16
2022-10-22T08:19:18.684Z,98349.66
2022-10-22T08:21:45.960Z,98346.16
2022-10-22T08:24:12.880Z,98353.81
2022-10-22T08:26:40.029Z,98355.84
2022-10-22T08:29:07.125Z,98358.00
2022-10-22T08:31:33.963Z,98356.88
2022-10-22T08:34:01.199Z,98348.81
2022-10-22T08:36:27.802Z,98346.34
2022-10-22T08:38:54.306Z,98356.13
2022-10-22T08:41:22.632Z,98354.19
2022-10-22T08:44:04.786Z,98363.25
2022-10-22T08:46:31.679Z,98357.00
2022-10-22T08:49:00.758Z,98353.03
2022-10-22T08:51:31.725Z,98356.97
2022-10-22T08:54:04.435Z,98362.09
2022-10-22T08:56:31.652Z,98359.41
2022-10-22T08:59:12.685Z,98353.53
2022-10-22T09:01:45.798Z,98357.06
2022-10-22T09:04:32.810Z,98359.03
2022-10-22T09:07:00.100Z,98358.41
2022-10-22T09:09:30.923Z,98361.31
2022-10-22T09:11:58.132Z,98363.91
2022-10-22T09:14:25.101Z,98359.28
2022-10-22T09:16:58.720Z,98365.13
2022-10-22T09:20:04.859Z,98365.41
2022-10-22T09:25:29.009Z,98368.81
2022-10-22T09:27:58.530Z,98367.38
2022-10-22T09:30:30.512Z,98371.16
2022-10-22T09:33:06.152Z,98367.38
2022-10-22T09:35:49.081Z,98369.06
2022-10-22T09:38:19.966Z,98368.94
2022-10-22T09:40:55.444Z,98367.72
2022-10-22T09:43:22.263Z,98367.69
2022-10-22T09:45:57.007Z,98378.94
2022-10-22T09:48:30.501Z,98370.78
2022-10-22T09:51:13.242Z,98381.34
2022-10-22T09:53:45.066Z,98386.50
2022-10-22T09:56:19.002Z,98390.03
2022-10-22T09:58:49.202Z,98393.63
2022-10-22T10:01:23.008Z,98391.66
2022-10-22T10:03:50.187Z,98395.31
2022-10-22T10:06:22.272Z,98400.56
2022-10-22T10:08:49.287Z,98406.84
2022-10-22T10:11:32.344Z,98407.97
2022-10-22T10:13:59.028Z,98411.91
2022-10-22T10:16:38.722Z,98414.75
2022-10-22T10:19:23.610Z,98411.03
2022-10-22T10:21:53.166Z,98403.72
2022-10-22T10:24:33.331Z,98411.47
2022-10-22T10:27:11.749Z,98419.03
2022-10-22T10:29:53.906Z,98414.59
2022-10-22T10:32:48.224Z,98413.81
2022-10-22T10:35:21.206Z,98423.72
2022-10-22T10:38:20.561Z,98421.88
2022-10-22T10:41:09.728Z,98427.72
2022-10-22T10:43:49.622Z,98420.69
2022-10-22T10:46:43.936Z,98429.06
2022-10-22T10:49:19.898Z,98436.94
2022-10-22T10:52:04.687Z,98437.78
2022-10-22T10:54:49.328Z,98440.81
2022-10-22T10:57:54.722Z,98439.06
2022-10-22T11:00:21.958Z,98440.28
2022-10-22T11:03:14.346Z,98438.59
2022-10-22T11:05:55.899Z,98438.84
2022-10-22T11:08:26.902Z,98433.69
2022-10-22T11:11:06.431Z,98430.03
2022-10-22T11:13:36.002Z,98428.00
2022-10-22T11:16:11.609Z,98421.41
2022-10-22T11:19:06.004Z,98423.13
2022-10-22T11:21:39.929Z,98424.63
2022-10-22T11:24:20.586Z,98427.91
2022-10-22T11:26:52.236Z,98428.41
2022-10-22T11:29:27.233Z,98424.78
2022-10-22T11:31:56.521Z,98427.84
2022-10-22T11:34:37.784Z,98428.31
2022-10-22T11:37:05.137Z,98427.34
2022-10-22T11:39:40.421Z,98427.59
2022-10-22T11:42:11.334Z,98426.28
2022-10-22T11:44:59.734Z,98417.41
2022-10-22T11:47:48.683Z,98419.19
2022-10-22T11:50:28.196Z,98417.19
2022-10-22T11:53:18.944Z,98411.56
2022-10-22T11:55:53.834Z,98414.19
2022-10-22T11:58:50.853Z,98409.47
2022-10-22T12:01:41.700Z,98408.84
2022-10-22T12:04:22.271Z,98409.53
2022-10-22T12:07:02.331Z,98412.94
2022-10-22T12:09:32.223Z,98409.88
2022-10-22T12:12:11.703Z,98419.88
2022-10-22T12:14:52.229Z,98406.97
2022-10-22T12:17:20.833Z,98416.63
2022-10-22T12:19:50.049Z,98415.53
2022-10-22T12:22:20.523Z,98420.75
2022-10-22T12:24:51.859Z,98415.19
2022-10-22T12:27:25.618Z,98408.31
2022-10-22T12:29:57.689Z,98409.91
2022-10-22T12:32:38.992Z,98402.88
2022-10-22T12:35:15.238Z,98396.56
2022-10-22T12:37:42.229Z,98399.06
2022-10-22T12:40:21.546Z,98396.75
2022-10-22T12:42:50.052Z,98391.41
2022-10-22T12:45:16.862Z,98388.94
2022-10-22T12:47:47.922Z,98388.97
2022-10-22T12:50:31.433Z,98390.09
2022-10-22T12:52:58.824Z,98389.66
2022-10-22T12:55:26.273Z,98384.34
2022-10-22T12:57:53.086Z,98383.31
2022-10-22T13:00:21.378Z,98387.31
2022-10-22T13:02:48.036Z,98386.56
2022-10-22T13:05:27.308Z,98383.53
2022-10-22T13:08:07.400Z,98376.00
2022-10-22T13:10:36.038Z,98379.47
2022-10-22T13:13:03.964Z,98383.19
2022-10-22T13:15:30.467Z,98393.56
2022-10-22T13:18:03.659Z,98388.13
2022-10-22T13:20:30.491Z,98375.50
2022-10-22T13:23:03.237Z,98384.56
2022-10-22T13:25:31.172Z,98376.66
2022-10-22T13:28:03.984Z,98374.53
2022-10-22T13:30:35.568Z,98377.16
2022-10-22T13:33:04.692Z,98372.88
2022-10-22T13:35:34.286Z,98368.81
2022-10-22T13:38:00.857Z,98370.56
2022-10-22T13:40:27.760Z,98375.81
2022-10-22T13:42:54.529Z,98364.22
2022-10-22T13:45:21.146Z,98370.06
2022-10-22T13:47:52.638Z,98379.88
2022-10-22T13:50:20.846Z,98374.78
2022-10-22T13:52:53.014Z,98377.69
2022-10-22T13:55:25.335Z,98380.56
2022-10-22T13:58:01.833Z,98371.28
2022-10-22T14:00:28.497Z,98377.97
2022-10-22T14:02:57.373Z,98370.38
2022-10-22T14:05:24.004Z,98371.72
2022-10-22T14:07:50.813Z,98365.69
2022-10-22T14:10:22.282Z,98370.78
2022-10-22T14:12:52.457Z,98359.84
2022-10-22T14:15:24.471Z,98365.69
2022-10-22T14:17:56.814Z,98375.16
2022-10-22T14:20:28.474Z,98367.53
2022-10-22T14:22:56.400Z,98374.94
2022-10-22T14:25:25.980Z,98369.84
2022-10-22T14:27:52.835Z,98378.09
2022-10-22T14:30:22.008Z,98383.47
2022-10-22T14:32:49.143Z,98381.06
2022-10-22T14:35:18.316Z,98370.19
2022-10-22T14:37:49.510Z,98369.16
2022-10-22T14:40:19.392Z,98371.13
2022-10-22T14:42:47.686Z,98371.78
2022-10-22T14:45:21.234Z,98372.91
2022-10-22T14:47:48.575Z,98374.16
2022-10-22T14:50:15.327Z,98365.91
2022-10-22T14:52:43.595Z,98375.19
2022-10-22T14:55:12.043Z,98380.59
2022-10-22T14:57:39.671Z,98379.66
2022-10-22T15:00:08.901Z,98376.09
2022-10-22T15:02:35.598Z,98372.78
2022-10-22T15:05:02.363Z,98375.38
2022-10-22T15:07:29.189Z,98376.00
2022-10-22T15:09:55.704Z,98381.81
2022-10-22T15:12:22.750Z,98381.94
2022-10-22T15:14:51.781Z,98389.69
2022-10-22T15:17:18.840Z,98392.03
2022-10-22T15:19:48.014Z,98386.63
2022-10-22T15:22:15.033Z,98391.47
2022-10-22T15:24:44.924Z,98388.75
2022-10-22T15:27:13.713Z,98390.66
2022-10-22T15:29:45.907Z,98388.97
2022-10-22T15:32:19.076Z,98386.41
2022-10-22T15:34:48.400Z,98388.38
2022-10-22T15:37:17.698Z,98388.25
2022-10-22T15:39:45.418Z,98381.06
2022-10-22T15:42:12.174Z,98384.16
2022-10-22T15:44:41.624Z,98384.03
2022-10-22T15:47:08.639Z,98377.56
2022-10-22T15:49:38.371Z,98374.28
2022-10-22T15:52:09.240Z,98380.44
2022-10-22T15:54:36.077Z,98380.53
2022-10-22T15:57:05.769Z,98385.06
2022-10-22T15:59:32.719Z,98387.53
2022-10-22T16:01:59.610Z,98383.78
2022-10-22T16:04:26.108Z,98388.44
2022-10-22T16:06:53.693Z,98385.75
2022-10-22T16:09:22.947Z,98386.50
2022-10-22T16:11:50.784Z,98380.91
2022-10-22T16:14:21.133Z,98388.38
2022-10-22T16:16:50.262Z,98398.00
2022-10-22T16:19:18.726Z,98392.50
2022-10-22T16:21:48.071Z,98386.16
2022-10-22T16:24:14.765Z,98392.63
2022-10-22T16:26:41.369Z,98387.25
2022-10-22T16:29:10.555Z,98395.56
2022-10-22T16:31:37.295Z,98393.25
2022-10-22T16:34:03.931Z,98397.25
2022-10-22T16:36:30.431Z,98389.22
2022-10-22T16:38:57.024Z,98386.53
2022-10-22T16:41:25.408Z,98390.28
2022-10-22T16:43:55.033Z,98390.44
2022-10-22T16:46:22.468Z,98397.72
2022-10-22T16:48:50.328Z,98400.28
2022-10-22T16:51:19.932Z,98400.53
2022-10-22T16:53:46.929Z,98410.13
2022-10-22T16:56:15.168Z,98416.81
2022-10-22T16:58:50.432Z,98422.31
2022-10-22T17:01:18.694Z,98424.16
2022-10-22T17:03:45.504Z,98414.28
2022-10-22T17:06:12.224Z,98421.84
2022-10-22T17:08:39.434Z,98415.41
2022-10-22T17:11:10.696Z,98420.66
2022-10-22T17:13:38.140Z,98418.31
2022-10-22T17:16:06.502Z,98421.38
2022-10-22T17:18:35.087Z,98422.31
2022-10-22T17:21:01.711Z,98419.25
2022-10-22T17:23:31.077Z,98423.38
2022-10-22T17:26:02.924Z,98427.50
2022-10-22T17:28:30.122Z,98417.38
2022-10-22T17:31:08.711Z,98418.69
2022-10-22T17:33:36.006Z,98428.94
2022-10-22T17:36:05.515Z,98432.31
2022-10-22T17:38:32.013Z,98432.53
2022-10-22T17:40:59.897Z,98439.94
2022-10-22T17:43:29.449Z,98439.00
2022-10-22T17:46:14.547Z,98444.22
2022-10-22T17:48:41.098Z,98438.97
2022-10-22T17:51:11.337Z,98439.22
2022-10-22T17:53:42.735Z,98449.91
2022-10-22T17:56:10.293Z,98454.31
2022-10-22T17:58:37.275Z,98448.91
2022-10-22T18:01:04.168Z,98451.13
2022-10-22T18:03:30.910Z,98448.03
2022-10-22T18:06:05.692Z,98449.16
2022-10-22T18:08:32.591Z,98453.09
2022-10-22T18:10:59.885Z,98452.66
2022-10-22T18:13:26.490Z,98453.91
2022-10-22T18:15:56.656Z,98458.91
2022-10-22T18:18:23.642Z,98454.78
2022-10-22T18:20:51.132Z,98453.19
2022-10-22T18:23:18.291Z,98454.25
2022-10-22T18:25:46.402Z,98441.56
2022-10-22T18:28:13.820Z,98443.91
2022-10-22T18:30:43.257Z,98445.56
2022-10-22T18:33:12.629Z,98441.34
2022-10-22T18:35:41.231Z,98446.47
2022-10-22T18:38:08.924Z,98444.75
2022-10-22T18:40:36.081Z,98447.53
2022-10-22T18:43:03.789Z,98446.47
2022-10-22T18:45:30.327Z,98442.88
2022-10-22T18:47:58.737Z,98441.41
2022-10-22T18:50:25.381Z,98442.59
2022-10-22T18:52:51.932Z,98434.34
2022-10-22T18:55:18.513Z,98445.41
2022-10-22T18:57:45.008Z,98433.94
2022-10-22T19:00:12.312Z,98438.97
2022-10-22T19:02:38.961Z,98433.38
2022-10-22T19:05:05.998Z,98431.91
2022-10-22T19:07:32.493Z,98433.38
2022-10-22T19:09:59.060Z,98435.19
2022-10-22T19:12:25.564Z,98429.88
2022-10-22T19:14:52.950Z,98434.28
2022-10-22T19:17:19.485Z,98431.59
2022-10-22T19:19:46.097Z,98435.63
2022-10-22T19:22:12.928Z,98432.19
2022-10-22T19:24:39.632Z,98437.34
2022-10-22T19:27:06.282Z,98432.06
2022-10-22T19:29:33.031Z,98437.50
2022-10-22T19:31:59.773Z,98440.03
2022-10-22T19:34:26.345Z,98442.97
2022-10-22T19:36:52.928Z,98444.59
2022-10-22T19:39:19.480Z,98440.59
2022-10-22T19:41:46.209Z,98442.22
2022-10-22T19:44:13.222Z,98446.94
2022-10-22T19:46:41.039Z,98441.19
2022-10-22T19:49:07.628Z,98442.41
2022-10-22T19:51:34.472Z,98439.63
2022-10-22T19:54:08.295Z,98440.50
2022-10-22T19:56:36.098Z,98437.44
2022-10-22T19:59:02.989Z,98438.41
2022-10-22T20:01:31.783Z,98439.72
2022-10-22T20:03:58.520Z,98431.34
2022-10-22T20:06:25.372Z,98439.31
2022-10-22T20:08:55.230Z,98437.84
2022-10-22T20:11:25.189Z,98447.66
2022-10-22T20:13:52.643Z,98441.97
2022-10-22T20:16:20.359Z,98436.81
2022-10-22T20:18:47.086Z,98443.16
2022-10-22T20:21:15.420Z,98442.97
2022-10-22T20:23:42.829Z,98456.13
2022-10-22T20:26:10.584Z,98458.59
2022-10-22T20:28:37.504Z,98450.31
2022-10-22T20:31:09.687Z,98457.84
2022-10-22T20:33:36.273Z,98451.50
2022-10-22T20:36:05.561Z,98456.13
2022-10-22T20:38:32.109Z,98452.47
2022-10-22T20:41:03.296Z,98455.38
2022-10-22T20:43:29.871Z,98457.88
2022-10-22T20:45:57.076Z,98464.94
2022-10-22T20:48:26.703Z,98457.59
2022-10-22T20:50:54.078Z,98461.72
2022-10-22T20:53:21.094Z,98461.19
2022-10-22T20:55:49.269Z,98458.34
2022-10-22T20:58:17.681Z,98461.00
2022-10-22T21:00:45.551Z,98460.88
2022-10-22T21:03:13.453Z,98459.81
2022-10-22T21:05:40.259Z,98451.88
2022-10-22T21:08:06.790Z,98446.00
2022-10-22T21:10:34.738Z,98442.41
2022-10-22T21:13:01.341Z,98439.63
2022-10-22T21:15:27.990Z,98444.63
2022-10-22T21:17:55.000Z,98445.34
2022-10-22T21:20:24.633Z,98446.13
2022-10-22T21:22:51.835Z,98438.91
2022-10-22T21:25:18.411Z,98424.94
2022-10-22T21:27:44.897Z,98434.06
2022-10-22T21:30:12.806Z,98439.22
2022-10-22T21:32:39.445Z,98436.75
2022-10-22T21:35:06.423Z,98437.59
2022-10-22T21:37:35.019Z,98439.22
2022-10-22T21:40:03.660Z,98446.88
2022-10-22T21:42:30.470Z,98449.56
2022-10-22T21:44:57.233Z,98437.75
2022-10-22T21:47:23.892Z,98436.91
2022-10-22T21:49:50.481Z,98434.25
2022-10-22T21:52:17.528Z,98442.28
2022-10-22T21:54:44.174Z,98441.41
2022-10-22T21:57:11.764Z,98440.25
2022-10-22T21:59:38.366Z,98443.63
2022-10-22T22:02:07.301Z,98443.63
2022-10-22T22:04:33.983Z,98446.56
2022-10-22T22:07:02.633Z,98450.53
2022-10-22T22:09:29.378Z,98446.72
2022-10-22T22:11:56.309Z,98435.81
2022-10-22T22:14:22.881Z,98431.28
2022-10-22T22:16:49.501Z,98430.53
2022-10-22T22:19:16.048Z,98435.53
2022-10-22T22:21:42.700Z,98431.41
2022-10-22T22:24:11.839Z,98439.50
2022-10-22T22:26:39.375Z,98433.47
2022-10-22T22:29:05.938Z,98428.63
2022-10-22T22:31:34.521Z,98435.38
2022-10-22T22:34:03.507Z,98439.50
2022-10-22T22:36:34.903Z,98444.22
2022-10-22T22:39:01.576Z,98439.50
2022-10-22T22:41:28.164Z,98438.59
2022-10-22T22:46:22.169Z,98444.59
2022-10-22T22:48:49.607Z,98444.38
2022-10-22T22:51:18.873Z,98440.63
2022-10-22T22:53:45.739Z,98444.69
2022-10-22T22:56:13.693Z,98444.84
2022-10-22T22:58:40.724Z,98424.88
2022-10-22T23:01:17.757Z,98431.69
2022-10-22T23:03:46.929Z,98424.53
2022-10-22T23:06:14.778Z,98423.97
2022-10-22T23:08:42.248Z,98429.09
2022-10-22T23:11:12.361Z,98428.94
2022-10-22T23:13:40.168Z,98421.59
2022-10-22T23:16:09.034Z,98427.16
2022-10-22T23:18:36.161Z,98421.31
2022-10-22T23:21:07.273Z,98412.28
2022-10-22T23:23:34.415Z,98413.41
2022-10-22T23:26:01.604Z,98410.22
2022-10-22T23:28:28.510Z,98404.50
2022-10-22T23:30:55.166Z,98398.75
2022-10-22T23:33:21.819Z,98409.72
2022-10-22T23:35:48.428Z,98405.25
2022-10-22T23:38:14.991Z,98398.81
2022-10-22T23:40:41.615Z,98407.94
2022-10-22T23:43:08.159Z,98404.09
2022-10-22T23:45:35.035Z,98403.56
2022-10-22T23:48:01.566Z,98408.88
2022-10-22T23:50:28.187Z,98402.00
2022-10-22T23:52:54.741Z,98397.53
2022-10-22T23:55:21.349Z,98399.94
2022-10-22T23:57:47.867Z,98390.59
